Terminal Aerodrome Forecast
Issued by NWS

Home | Current Version | Previous Version | Text Only | Print | Product List | Glossary On
Versions: 1 2 3 4 5 6 7 8 9 10 11 12 13 14 15 16
307
FTAK31 PAJN 231720
TAFAJN
TAF
PAJN 231720Z 2318/2418 VRB03KT P6SM FEW005 BKN035 OVC050
     FM232100 25006KT P6SM SCT035 BKN050
     FM241000 00000KT 6SM BCFG SCT001 BKN020 OVC040=

USA.gov is the U.S. government's official web portal to all federal, state and local government web resources and services.